createdAt,value
2018-08-11T00:00:29.207Z,41.30
2018-08-11T00:02:59.122Z,40.40
2018-08-11T00:05:29.026Z,41.00
2018-08-11T00:07:58.918Z,40.50
2018-08-11T00:10:28.865Z,40.40
2018-08-11T00:12:58.746Z,40.10
2018-08-11T00:15:28.643Z,40.40
2018-08-11T00:17:58.526Z,40.90
2018-08-11T00:20:29.943Z,40.40
2018-08-11T00:22:59.834Z,40.40
2018-08-11T00:25:29.737Z,40.70
2018-08-11T00:27:59.628Z,40.90
2018-08-11T00:30:29.523Z,40.70
2018-08-11T00:33:02.707Z,40.90
2018-08-11T00:35:32.597Z,41.00
2018-08-11T00:38:02.498Z,41.00
2018-08-11T00:40:32.403Z,40.80
2018-08-11T00:43:02.291Z,40.70
2018-08-11T00:45:32.206Z,40.90
2018-08-11T00:48:02.118Z,41.10
2018-08-11T00:50:34.935Z,41.10
2018-08-11T00:53:05.893Z,41.00
2018-08-11T00:55:35.801Z,41.20
2018-08-11T00:58:05.850Z,41.30
2018-08-11T01:00:35.753Z,40.90
2018-08-11T01:03:06.283Z,41.00
2018-08-11T01:05:36.190Z,41.00
2018-08-11T01:08:06.085Z,40.90
2018-08-11T01:10:35.974Z,41.20
2018-08-11T01:13:06.231Z,41.00
2018-08-11T01:15:36.123Z,41.30
2018-08-11T01:18:06.153Z,41.20
2018-08-11T01:20:36.051Z,41.20
2018-08-11T01:23:05.945Z,41.20
2018-08-11T01:25:43.149Z,41.30
2018-08-11T01:28:13.059Z,41.40
2018-08-11T01:30:42.950Z,41.50
2018-08-11T01:33:12.830Z,41.00
2018-08-11T01:35:42.727Z,41.10
2018-08-11T01:38:12.614Z,41.30
2018-08-11T01:40:42.505Z,41.70
2018-08-11T01:43:12.382Z,41.80
2018-08-11T01:45:42.278Z,41.80
2018-08-11T01:48:12.164Z,42.10
2018-08-11T01:50:42.055Z,42.30
2018-08-11T01:53:11.934Z,42.50
2018-08-11T01:55:41.842Z,42.70
2018-08-11T01:58:11.750Z,42.90
2018-08-11T02:00:41.648Z,43.00
2018-08-11T02:03:11.522Z,43.20
2018-08-11T02:05:41.422Z,43.50
2018-08-11T02:08:11.306Z,42.90
2018-08-11T02:10:41.196Z,43.00
2018-08-11T02:13:11.079Z,43.10
2018-08-11T02:15:40.980Z,43.30
2018-08-11T02:18:10.862Z,43.30
2018-08-11T02:20:40.750Z,43.40
2018-08-11T02:23:10.652Z,43.30
2018-08-11T02:25:40.531Z,43.40
2018-08-11T02:28:10.411Z,43.20
2018-08-11T02:30:40.309Z,43.30
2018-08-11T02:33:10.243Z,43.40
2018-08-11T02:35:40.115Z,43.60
2018-08-11T02:38:10.075Z,43.70
2018-08-11T02:40:39.971Z,43.70
2018-08-11T02:43:09.856Z,44.50
2018-08-11T02:45:39.758Z,43.60
2018-08-11T02:48:09.639Z,43.50
2018-08-11T02:50:39.542Z,43.70
2018-08-11T02:53:09.441Z,43.50
2018-08-11T02:55:39.314Z,44.00
2018-08-11T02:58:09.194Z,43.50
2018-08-11T03:00:39.093Z,43.90
2018-08-11T03:03:08.974Z,43.30
2018-08-11T03:05:38.869Z,43.40
2018-08-11T03:08:08.775Z,43.30
2018-08-11T03:10:43.966Z,43.20
2018-08-11T03:13:16.136Z,43.10
2018-08-11T03:15:46.051Z,42.90
2018-08-11T03:18:15.931Z,42.50
2018-08-11T03:20:45.817Z,42.50
2018-08-11T03:23:15.702Z,42.60
2018-08-11T03:25:45.605Z,42.70
2018-08-11T03:28:15.511Z,42.70
2018-08-11T03:30:45.400Z,42.50
2018-08-11T03:33:20.642Z,42.50
2018-08-11T03:35:50.530Z,42.40
2018-08-11T03:38:20.414Z,42.50
2018-08-11T03:40:50.298Z,42.60
2018-08-11T03:43:20.173Z,42.80
2018-08-11T03:45:50.065Z,43.00
2018-08-11T03:48:19.970Z,43.10
2018-08-11T03:50:49.861Z,43.00
2018-08-11T03:53:19.743Z,42.80
2018-08-11T03:55:49.640Z,42.50
2018-08-11T03:58:19.526Z,42.70
2018-08-11T04:00:49.422Z,42.50
2018-08-11T04:03:19.316Z,42.50
2018-08-11T04:05:49.198Z,42.50
2018-08-11T04:08:19.226Z,42.50
2018-08-11T04:10:49.149Z,42.50
2018-08-11T04:13:19.069Z,42.40
2018-08-11T04:15:49.089Z,42.40
2018-08-11T04:18:18.937Z,42.50
2018-08-11T04:20:48.871Z,42.30
2018-08-11T04:23:18.753Z,42.50
2018-08-11T04:25:48.750Z,42.40
2018-08-11T04:28:18.665Z,42.40
2018-08-11T04:30:48.757Z,42.60
2018-08-11T04:33:18.708Z,42.50
2018-08-11T04:35:48.606Z,42.50
2018-08-11T04:38:18.598Z,42.80
2018-08-11T04:40:48.482Z,42.60
2018-08-11T04:43:18.402Z,42.90
2018-08-11T04:45:48.338Z,42.80
2018-08-11T04:48:18.291Z,42.70
2018-08-11T04:50:48.431Z,43.10
2018-08-11T04:53:18.390Z,43.30
2018-08-11T04:55:48.378Z,43.50
2018-08-11T04:58:18.454Z,43.80
2018-08-11T05:00:48.378Z,43.80
2018-08-11T05:03:18.339Z,43.50
2018-08-11T05:05:48.230Z,43.40
2018-08-11T05:08:18.218Z,42.90
2018-08-11T05:10:48.117Z,43.20
2018-08-11T05:13:18.062Z,43.40
2018-08-11T05:15:47.947Z,44.10
2018-08-11T05:18:18.239Z,43.40
2018-08-11T05:20:48.095Z,43.30
2018-08-11T05:23:17.982Z,43.20
2018-08-11T05:25:47.900Z,43.50
2018-08-11T05:28:17.890Z,43.80
2018-08-11T05:30:52.198Z,43.00
2018-08-11T05:33:22.086Z,42.70
2018-08-11T05:35:51.986Z,42.90
2018-08-11T05:38:21.877Z,42.80
2018-08-11T05:40:51.774Z,42.30
2018-08-11T05:43:21.655Z,42.50
2018-08-11T05:45:51.554Z,42.50
2018-08-11T05:48:21.450Z,42.90
2018-08-11T05:50:51.370Z,43.20
2018-08-11T05:53:21.306Z,43.30
2018-08-11T05:55:51.203Z,43.40
2018-08-11T05:58:21.094Z,43.60
2018-08-11T06:00:51.023Z,43.70
2018-08-11T06:03:20.878Z,43.60
2018-08-11T06:05:50.769Z,43.60
2018-08-11T06:08:20.739Z,43.40
2018-08-11T06:10:50.616Z,43.40
2018-08-11T06:13:20.498Z,43.60
2018-08-11T06:15:50.383Z,43.70
2018-08-11T06:18:20.278Z,43.00
2018-08-11T06:20:50.191Z,43.30
2018-08-11T06:23:20.098Z,43.40
2018-08-11T06:25:50.063Z,43.40
2018-08-11T06:28:19.946Z,43.20
2018-08-11T06:30:49.846Z,42.80
2018-08-11T06:33:19.914Z,42.80
2018-08-11T06:35:49.881Z,42.90
2018-08-11T06:38:19.775Z,42.90
2018-08-11T06:40:49.762Z,42.90
2018-08-11T06:43:19.786Z,42.60
2018-08-11T06:45:49.666Z,42.70
2018-08-11T06:48:19.558Z,42.50
2018-08-11T06:50:49.458Z,42.30
2018-08-11T06:53:19.363Z,42.30
2018-08-11T06:55:54.501Z,42.20
2018-08-11T06:58:24.511Z,42.10
2018-08-11T07:00:54.386Z,41.90
2018-08-11T07:03:25.692Z,41.80
2018-08-11T07:05:59.758Z,41.40
2018-08-11T07:08:29.650Z,41.80
2018-08-11T07:11:06.613Z,41.20
2018-08-11T07:13:36.509Z,41.10
2018-08-11T07:16:06.400Z,41.20
2018-08-11T07:18:36.298Z,41.70
2018-08-11T07:21:06.200Z,41.80
2018-08-11T07:23:36.127Z,41.80
2018-08-11T07:26:06.022Z,42.20
2018-08-11T07:28:35.906Z,42.10
2018-08-11T07:31:11.166Z,42.10
2018-08-11T07:33:41.072Z,42.30
2018-08-11T07:36:10.982Z,42.00
2018-08-11T07:38:40.875Z,42.30
2018-08-11T07:41:10.794Z,41.90
2018-08-11T07:43:47.396Z,41.60
2018-08-11T07:46:17.278Z,41.90
2018-08-11T07:48:47.201Z,41.50
2018-08-11T07:51:17.126Z,41.60
2018-08-11T07:53:47.162Z,42.00
2018-08-11T07:56:17.051Z,41.90
2018-08-11T07:58:46.942Z,42.00
2018-08-11T08:01:16.875Z,41.90
2018-08-11T08:03:46.727Z,42.20
2018-08-11T08:06:16.622Z,42.00
2018-08-11T08:08:46.531Z,41.90
2018-08-11T08:11:16.419Z,41.80
2018-08-11T08:13:46.363Z,41.80
2018-08-11T08:16:16.208Z,41.80
2018-08-11T08:18:46.106Z,41.80
2018-08-11T08:21:15.999Z,41.90
2018-08-11T08:23:45.965Z,41.90
2018-08-11T08:26:15.902Z,41.50
2018-08-11T08:28:45.759Z,41.10
2018-08-11T08:31:15.638Z,41.40
2018-08-11T08:33:45.753Z,41.70
2018-08-11T08:36:15.586Z,41.90
2018-08-11T08:38:45.487Z,42.00
2018-08-11T08:41:15.507Z,41.90
2018-08-11T08:43:45.402Z,42.00
2018-08-11T08:46:15.294Z,42.00
2018-08-11T08:48:45.186Z,42.00
2018-08-11T08:51:15.238Z,41.50
2018-08-11T08:53:45.590Z,41.70
2018-08-11T08:56:15.551Z,42.10
2018-08-11T08:58:45.542Z,42.20
2018-08-11T09:01:15.522Z,42.10
2018-08-11T09:03:45.425Z,41.30
2018-08-11T09:06:15.335Z,41.70
2018-08-11T09:08:45.222Z,41.90
2018-08-11T09:11:15.151Z,41.80
2018-08-11T09:13:45.069Z,41.70
2018-08-11T09:16:14.970Z,41.70
2018-08-11T09:18:44.875Z,41.50
2018-08-11T09:21:14.758Z,41.70
2018-08-11T09:23:44.653Z,41.30
2018-08-11T09:26:14.567Z,41.10
2018-08-11T09:28:44.471Z,41.30
2018-08-11T09:31:14.359Z,41.40
2018-08-11T09:33:44.682Z,41.30
2018-08-11T09:36:14.654Z,42.00
2018-08-11T09:38:44.578Z,40.60
2018-08-11T09:41:14.478Z,40.60
2018-08-11T09:43:44.487Z,40.30
2018-08-11T09:46:14.416Z,40.80
2018-08-11T09:48:50.950Z,40.60
2018-08-11T09:51:20.840Z,40.70
2018-08-11T09:53:50.738Z,40.40
2018-08-11T09:56:20.629Z,40.90
2018-08-11T09:58:50.592Z,41.20
2018-08-11T10:01:25.686Z,41.20
2018-08-11T10:03:55.583Z,42.00
2018-08-11T10:06:25.474Z,41.30
2018-08-11T10:08:55.374Z,41.20
2018-08-11T10:11:25.266Z,41.10
2018-08-11T10:13:55.164Z,41.20
2018-08-11T10:16:25.050Z,40.70
2018-08-11T10:18:54.968Z,41.10
2018-08-11T10:21:24.858Z,41.00
2018-08-11T10:23:55.579Z,40.70
2018-08-11T10:26:25.582Z,40.60
2018-08-11T10:28:55.478Z,40.40
2018-08-11T10:31:25.371Z,40.20
2018-08-11T10:33:55.269Z,40.90
2018-08-11T10:36:31.608Z,40.10
2018-08-11T10:39:01.578Z,40.90
2018-08-11T10:41:31.594Z,41.00
2018-08-11T10:44:01.488Z,40.50
2018-08-11T10:46:31.359Z,40.10
2018-08-11T10:49:01.255Z,39.10
2018-08-11T10:51:31.150Z,38.40
2018-08-11T10:54:07.646Z,38.20
2018-08-11T10:56:37.547Z,37.90
2018-08-11T10:59:07.448Z,36.90
2018-08-11T11:01:37.374Z,36.40
2018-08-11T11:04:07.262Z,36.10
2018-08-11T11:06:37.154Z,36.10
2018-08-11T11:09:09.439Z,35.60
2018-08-11T11:11:39.773Z,36.30
2018-08-11T11:14:09.680Z,36.40
2018-08-11T11:16:39.569Z,35.80
2018-08-11T11:19:09.459Z,35.80
2018-08-11T11:21:39.353Z,36.40
2018-08-11T11:24:09.239Z,36.50
2018-08-11T11:26:39.127Z,36.10
2018-08-11T11:29:09.018Z,35.70
2018-08-11T11:31:38.926Z,35.20
2018-08-11T11:34:08.818Z,35.70
2018-08-11T11:36:38.706Z,36.10
2018-08-11T11:39:09.257Z,36.20
2018-08-11T11:41:39.475Z,36.30
2018-08-11T11:44:09.628Z,36.00
2018-08-11T11:46:39.516Z,36.20
2018-08-11T11:49:09.413Z,36.40
2018-08-11T11:51:39.346Z,36.10
2018-08-11T11:54:09.205Z,36.20
2018-08-11T11:56:39.091Z,36.00
2018-08-11T11:59:08.989Z,36.00
2018-08-11T12:01:39.098Z,35.70
2018-08-11T12:04:08.994Z,35.80
2018-08-11T12:06:38.890Z,35.90
2018-08-11T12:09:10.319Z,36.10
2018-08-11T12:11:40.605Z,35.90
2018-08-11T12:14:10.591Z,36.10
2018-08-11T12:16:40.496Z,36.30
2018-08-11T12:19:10.383Z,36.30
2018-08-11T12:21:40.270Z,36.60
2018-08-11T12:24:10.181Z,36.00
2018-08-11T12:26:40.064Z,36.10
2018-08-11T12:29:09.954Z,36.00
2018-08-11T12:31:39.842Z,36.20
2018-08-11T12:34:09.734Z,35.80
2018-08-11T12:36:39.685Z,36.20
2018-08-11T12:39:10.753Z,36.00
2018-08-11T12:41:41.322Z,35.90
2018-08-11T12:44:11.785Z,36.10
2018-08-11T12:46:41.686Z,36.20
2018-08-11T12:49:11.569Z,36.40
2018-08-11T12:51:41.458Z,36.30
2018-08-11T12:54:11.346Z,36.40
2018-08-11T12:56:41.234Z,36.70
2018-08-11T12:59:11.123Z,36.50
2018-08-11T13:01:41.049Z,36.10
2018-08-11T13:04:10.902Z,35.60
2018-08-11T13:06:40.802Z,36.30
2018-08-11T13:09:11.098Z,35.80
2018-08-11T13:11:47.616Z,35.80
2018-08-11T13:14:17.499Z,35.70
2018-08-11T13:16:47.419Z,35.80
2018-08-11T13:19:17.384Z,36.00
2018-08-11T13:21:47.262Z,35.90
2018-08-11T13:24:17.192Z,35.60
2018-08-11T13:26:47.081Z,35.60
2018-08-11T13:29:16.966Z,35.40
2018-08-11T13:31:53.474Z,35.40
2018-08-11T13:34:23.363Z,35.80
2018-08-11T13:36:53.242Z,36.00
2018-08-11T13:39:23.129Z,35.70
2018-08-11T13:41:53.009Z,35.50
2018-08-11T13:44:22.890Z,35.40
2018-08-11T13:46:52.782Z,35.40
2018-08-11T13:49:22.723Z,35.70
2018-08-11T13:51:52.606Z,35.90
2018-08-11T13:54:22.564Z,36.00
2018-08-11T13:56:52.390Z,35.60
2018-08-11T13:59:22.273Z,36.10
2018-08-11T14:01:52.159Z,35.80
2018-08-11T14:04:22.035Z,34.40
2018-08-11T14:06:51.924Z,35.40
2018-08-11T14:09:21.801Z,35.90
2018-08-11T14:11:51.690Z,36.00
2018-08-11T14:14:21.602Z,35.50
2018-08-11T14:16:51.511Z,34.30
2018-08-11T14:19:21.379Z,34.90
2018-08-11T14:21:51.262Z,34.80
2018-08-11T14:24:21.186Z,34.50
2018-08-11T14:26:51.090Z,34.40
2018-08-11T14:29:20.979Z,34.20
2018-08-11T14:31:50.890Z,33.80
2018-08-11T14:34:20.783Z,34.60
2018-08-11T14:36:50.703Z,33.60
2018-08-11T14:39:20.614Z,33.30
2018-08-11T14:41:50.515Z,33.70
2018-08-11T14:44:20.414Z,33.20
2018-08-11T14:46:50.306Z,33.50
2018-08-11T14:49:20.199Z,33.50
2018-08-11T14:51:50.098Z,33.00
2018-08-11T14:54:20.003Z,33.00
2018-08-11T14:56:50.105Z,32.90
2018-08-11T14:59:20.023Z,32.80
2018-08-11T15:01:49.914Z,32.80
2018-08-11T15:04:19.818Z,32.90
2018-08-11T15:06:49.757Z,32.70
2018-08-11T15:09:19.702Z,32.70
2018-08-11T15:11:49.593Z,32.70
2018-08-11T15:14:19.483Z,32.50
2018-08-11T15:16:49.386Z,32.00
2018-08-11T15:19:19.270Z,32.30
2018-08-11T15:21:49.163Z,32.90
2018-08-11T15:24:19.262Z,31.60
2018-08-11T15:26:49.191Z,31.80
2018-08-11T15:29:19.082Z,32.60
2018-08-11T15:31:48.973Z,31.90
2018-08-11T15:34:18.866Z,31.90
2018-08-11T15:36:48.771Z,31.80
2018-08-11T15:39:18.659Z,32.60
2018-08-11T15:41:48.603Z,32.00
2018-08-11T15:44:18.487Z,31.80
2018-08-11T15:46:48.368Z,32.00
2018-08-11T15:49:18.305Z,32.30
2018-08-11T15:51:48.201Z,31.70
2018-08-11T15:54:18.185Z,32.80
2018-08-11T15:56:48.005Z,32.00
2018-08-11T15:59:17.898Z,31.90
2018-08-11T16:01:47.814Z,32.00
2018-08-11T16:04:17.703Z,32.00
2018-08-11T16:06:47.590Z,32.20
2018-08-11T16:09:17.502Z,32.00
2018-08-11T16:11:47.386Z,33.20
2018-08-11T16:14:17.302Z,32.00
2018-08-11T16:16:47.238Z,32.00
2018-08-11T16:19:17.126Z,31.90
2018-08-11T16:21:47.031Z,31.50
2018-08-11T16:24:17.026Z,31.70
2018-08-11T16:26:46.954Z,31.50
2018-08-11T16:29:16.901Z,31.20
2018-08-11T16:31:46.855Z,31.60
2018-08-11T16:34:17.758Z,31.50
2018-08-11T16:36:47.644Z,31.50
2018-08-11T16:39:17.611Z,31.40
2018-08-11T16:41:47.450Z,31.30
2018-08-11T16:44:17.362Z,31.20
2018-08-11T16:46:47.285Z,31.60
2018-08-11T16:49:17.170Z,31.40
2018-08-11T16:51:47.375Z,31.30
2018-08-11T16:54:17.318Z,30.40
2018-08-11T16:56:50.166Z,30.90
2018-08-11T16:59:20.477Z,30.90
2018-08-11T17:01:50.336Z,30.80
2018-08-11T17:04:20.214Z,31.40
2018-08-11T17:06:50.110Z,30.60
2018-08-11T17:09:19.990Z,30.70
2018-08-11T17:11:49.890Z,30.60
2018-08-11T17:14:19.769Z,30.80
2018-08-11T17:16:49.654Z,30.70
2018-08-11T17:19:19.587Z,30.20
2018-08-11T17:21:49.518Z,30.80
2018-08-11T17:24:19.403Z,30.80
2018-08-11T17:26:49.294Z,30.70
2018-08-11T17:29:19.180Z,30.80
2018-08-11T17:31:49.071Z,30.60
2018-08-11T17:34:18.949Z,30.70
2018-08-11T17:36:48.846Z,30.80
2018-08-11T17:39:18.722Z,30.80
2018-08-11T17:41:48.606Z,30.90
2018-08-11T17:44:18.511Z,31.00
2018-08-11T17:46:48.590Z,31.00
2018-08-11T17:49:18.485Z,30.50
2018-08-11T17:51:48.455Z,30.90
2018-08-11T17:54:18.296Z,30.90
2018-08-11T17:56:48.178Z,31.20
2018-08-11T17:59:18.054Z,31.20
2018-08-11T18:01:47.958Z,31.30
2018-08-11T18:04:17.873Z,31.70
2018-08-11T18:06:47.803Z,31.60
2018-08-11T18:09:17.759Z,31.60
2018-08-11T18:11:48.362Z,31.50
2018-08-11T18:14:18.398Z,31.50
2018-08-11T18:16:48.289Z,31.30
2018-08-11T18:19:18.286Z,31.20
2018-08-11T18:21:48.517Z,31.10
2018-08-11T18:24:18.524Z,32.30
2018-08-11T18:26:48.603Z,31.40
2018-08-11T18:29:18.492Z,31.30
2018-08-11T18:31:48.371Z,31.30
2018-08-11T18:34:18.259Z,31.40
2018-08-11T18:36:48.144Z,31.40
2018-08-11T18:39:18.110Z,31.80
2018-08-11T18:41:47.999Z,31.70
2018-08-11T18:44:17.899Z,31.70
2018-08-11T18:46:47.782Z,31.50
2018-08-11T18:49:17.698Z,32.00
2018-08-11T18:51:48.508Z,31.70
2018-08-11T18:54:18.404Z,31.90
2018-08-11T18:56:48.293Z,31.70
2018-08-11T18:59:18.603Z,32.40
2018-08-11T19:01:48.618Z,32.80
2018-08-11T19:04:18.535Z,32.00
2018-08-11T19:06:48.415Z,31.90
2018-08-11T19:09:18.306Z,31.40
2018-08-11T19:11:48.355Z,32.50
2018-08-11T19:14:18.326Z,32.20
2018-08-11T19:16:48.234Z,32.10
2018-08-11T19:19:18.126Z,32.20
2018-08-11T19:21:48.042Z,32.20
2018-08-11T19:24:18.107Z,31.90
2018-08-11T19:26:47.999Z,31.80
2018-08-11T19:29:17.963Z,32.40
2018-08-11T19:31:47.850Z,32.60
2018-08-11T19:34:17.766Z,32.50
2018-08-11T19:36:47.791Z,32.50
2018-08-11T19:39:17.774Z,32.80
2018-08-11T19:41:47.774Z,32.80
2018-08-11T19:44:17.673Z,32.90
2018-08-11T19:46:54.529Z,32.50
2018-08-11T19:49:24.568Z,32.90
2018-08-11T19:51:54.460Z,32.70
2018-08-11T19:54:24.390Z,32.80
2018-08-11T19:56:54.757Z,32.90
2018-08-11T19:59:25.893Z,32.40
2018-08-11T20:01:55.980Z,32.50
2018-08-11T20:04:25.878Z,32.70
2018-08-11T20:06:55.754Z,32.70
2018-08-11T20:09:25.645Z,33.00
2018-08-11T20:11:55.634Z,32.80
2018-08-11T20:14:25.519Z,33.50
2018-08-11T20:16:55.439Z,33.00
2018-08-11T20:19:25.564Z,33.20
2018-08-11T20:21:55.222Z,33.30
2018-08-11T20:24:26.894Z,33.10
2018-08-11T20:26:56.799Z,33.80
2018-08-11T20:29:26.668Z,33.50
2018-08-11T20:31:56.559Z,34.30
2018-08-11T20:34:26.487Z,34.10
2018-08-11T20:36:56.731Z,34.00
2018-08-11T20:39:26.846Z,34.10
2018-08-11T20:41:58.098Z,34.50
2018-08-11T20:44:58.852Z,34.70
2018-08-11T20:47:28.797Z,34.20
2018-08-11T20:49:58.603Z,34.40
2018-08-11T20:52:28.454Z,34.20
2018-08-11T20:54:58.350Z,34.30
2018-08-11T20:57:29.173Z,34.40
2018-08-11T20:59:59.636Z,34.80
2018-08-11T21:02:29.575Z,35.00
2018-08-11T21:04:59.488Z,35.00
2018-08-11T21:07:29.450Z,34.60
2018-08-11T21:09:59.343Z,34.50
2018-08-11T21:12:29.250Z,34.60
2018-08-11T21:14:59.248Z,34.70
2018-08-11T21:17:29.147Z,34.80
2018-08-11T21:19:59.042Z,34.50
2018-08-11T21:22:28.937Z,34.70
2018-08-11T21:24:58.843Z,34.90
2018-08-11T21:27:28.759Z,34.70
2018-08-11T21:29:58.638Z,34.70
2018-08-11T21:32:28.539Z,34.50
2018-08-11T21:34:58.421Z,34.60
2018-08-11T21:37:28.322Z,34.50
2018-08-11T21:39:58.303Z,34.70
2018-08-11T21:42:28.193Z,35.00
2018-08-11T21:44:58.086Z,35.40
2018-08-11T21:47:27.983Z,35.40
2018-08-11T21:49:57.886Z,35.40
2018-08-11T21:52:27.777Z,35.90
2018-08-11T21:54:57.691Z,35.50
2018-08-11T21:57:27.601Z,35.70
2018-08-11T21:59:57.494Z,35.80
2018-08-11T22:02:27.393Z,35.40
2018-08-11T22:04:57.274Z,35.40
2018-08-11T22:07:27.177Z,35.60
2018-08-11T22:09:57.066Z,36.00
2018-08-11T22:12:26.969Z,35.90
2018-08-11T22:14:56.861Z,36.10
2018-08-11T22:17:26.754Z,36.20
2018-08-11T22:19:56.651Z,36.30
2018-08-11T22:22:26.541Z,36.40
2018-08-11T22:24:56.435Z,36.50
2018-08-11T22:27:26.325Z,36.70
2018-08-11T22:29:56.222Z,36.80
2018-08-11T22:32:26.122Z,36.80
2018-08-11T22:34:56.010Z,36.90
2018-08-11T22:37:25.912Z,36.90
2018-08-11T22:39:55.793Z,36.80
2018-08-11T22:42:32.671Z,37.00
2018-08-11T22:45:02.558Z,37.10
2018-08-11T22:47:32.476Z,36.80
2018-08-11T22:50:02.395Z,37.10
2018-08-11T22:52:32.299Z,37.10
2018-08-11T22:56:26.693Z,37.00
2018-08-11T22:58:56.557Z,37.00
2018-08-11T23:01:26.470Z,37.10
2018-08-11T23:03:56.350Z,37.50
2018-08-11T23:06:26.256Z,37.40
2018-08-11T23:08:56.154Z,37.50
2018-08-11T23:11:26.062Z,37.40
2018-08-11T23:13:58.272Z,37.50
2018-08-11T23:16:28.171Z,37.60
2018-08-11T23:18:58.071Z,37.80
2018-08-11T23:21:28.003Z,37.90
2018-08-11T23:23:57.894Z,38.00
2018-08-11T23:26:28.194Z,38.00
2018-08-11T23:28:58.128Z,38.20
2018-08-11T23:31:28.057Z,38.30
2018-08-11T23:33:57.949Z,38.40
2018-08-11T23:36:27.887Z,38.60
2018-08-11T23:38:57.787Z,38.60
2018-08-11T23:41:27.709Z,38.50
2018-08-11T23:43:57.623Z,38.60
2018-08-11T23:46:27.530Z,38.60
2018-08-11T23:48:57.550Z,38.70
2018-08-11T23:51:27.470Z,38.60
2018-08-11T23:53:57.426Z,38.50
2018-08-11T23:56:27.328Z,38.80
2018-08-11T23:58:57.152Z,38.70
